Aérodrome :
LOGIN :

S'inscrire | Disclaimer

   EN    FR    IT 

 










Légende :    VFR   VFR Marginal   IFR   IFR Intensif   IFR Très Intensif
Visi : 
Plafond : 
>= 8 km
>= 3000ft
5 à 8 km
1000 à 3000 ft
1500m à 5 km
500 à 1000 ft
800 à 1500m
200 à 500 ft
< 800m
< 200 ft
Symboles :   Orages  Brouillard  Fortes neiges  Fortes précipitations  Vent > 20 kt
SIGMETs :   Divers  Orages  Givrage  Turbulence  Onde Orograph.  Cendres Volcan.







- Altitude de l'aérodrome : 160 ft
- Code IATA : FMO


EDDG - Münster Osnabrück Int.

DERNIER METAR :
  • 181550Z 27014KT 9999 -SHRA FEW015CB BKN050 04/02 Q0998 NOSIG

METARs EXPIRÉS :
  • 181520Z 27014KT 9999 FEW020CB BKN030 04/02 Q0997 NOSIG
  • 181450Z 29019G32KT 260V320 9999 -SHRA FEW015CB BKN025 04/02 Q0996 BECMG 28013KT
  • 181420Z 28018G29KT 250V320 9999 -SHRA FEW015 BKN022 05/02 Q0996 BECMG 28015G25KT
  • 181350Z 28020G30KT 9999 -RA BKN022 05/01 Q0994 BECMG 28015G25KT
  • 181320Z 28026G41KT 9999 -RA BKN022 05/01 Q0993 BECMG 28020G35KT

TAF TAF EDDG
Valide du 18 à 12h jusqu'au 19 à 12h UTC


181100Z 1812/1912 26030G45KT 9999 SCT040
TEMPO 1812/1814 26045G65KT
BECMG 1814/1817 26015G25KT
BECMG 1817/1820 24009KT
TEMPO 1903/1912 4500 SHRAGS BKN008CB
Pas de NOTAMs connus pour ce terrain.
1 SIGMET publié pour la FIR Langen (EDGG) :
 
Turbulence forte
EDGG SIGMET 5 VALID 181500/181700 EDZF
EDGG LANGEN FIR SEV TURB FCST NE OF LINE N4920 E01045 - N5215 E00740 SFC/FL060 MOV E 30KT NC=



MET'MAP, la Météo Aéronautique d'un coup d'oeil ! - Copyright ORBIFLY Décembre 2007 - Disclaimer

ORBIFLY MET'MAP TEAM :

Programmation & Développement : Alexandra Zaïnal
Conception & Développement : Baudouin d'Aumeries
Co-Programmation & Développement : Marc-Olivier Méhu
Soutien technique & logistique : Manuel Goepfert

Contact : metmap@orbifly.com




SOURCES & CREDITS :

   NOAA